Time;durP1;ratioP1;P1;durP2;ratioP2;P2;SDS_P1;SDS_P2;PMS_P1;PMS_P2;Temp;Humidity;BMP_temperature;BMP_pressure;BME280_temperature;BME280_humidity;BME280_pressure;Samples;Min_cycle;Max_cycle;Signal;HPM_P1;HPM_P2
2023/05/11 00:00:12;;;;;;;23.33;15.02;;;;;;;11.91;100.00;120678.84;5064403;28;20527;-58
2023/05/11 00:02:38;;;;;;;24.02;17.60;;;;;;;11.94;100.00;118931.84;5072232;28;20033;-58
2023/05/11 00:05:03;;;;;;;34.22;20.00;;;;;;;11.93;100.00;117528.09;5071008;28;20378;-57
2023/05/11 00:07:28;;;;;;;30.58;21.42;;;;;;;11.95;100.00;115429.13;5071612;28;20024;-58
2023/05/11 00:09:54;;;;;;;26.75;20.73;;;;;;;11.96;100.00;113680.28;5070473;28;20052;-58
2023/05/11 00:12:19;;;;;;;25.55;19.90;;;;;;;11.97;100.00;111933.06;5072068;28;20021;-58
2023/05/11 00:14:45;;;;;;;35.03;24.52;;;;;;;11.96;100.00;110531.72;5070644;28;20090;-58
2023/05/11 00:17:10;;;;;;;34.92;22.83;;;;;;;11.98;100.00;109135.47;5071867;28;20086;-58
2023/05/11 00:19:36;;;;;;;35.90;23.20;;;;;;;11.96;100.00;107734.25;5070602;28;20430;-58
2023/05/11 00:22:01;;;;;;;35.60;21.65;;;;;;;11.96;100.00;107035.19;5064143;28;20033;-58
2023/05/11 00:24:27;;;;;;;32.15;22.17;;;;;;;11.94;100.00;106332.81;5045620;28;20041;-58
2023/05/11 00:26:52;;;;;;;31.35;19.65;;;;;;;11.91;100.00;105628.84;5032126;28;20616;-58
2023/05/11 00:29:17;;;;;;;28.35;18.88;;;;;;;11.93;100.00;104933.59;5036732;28;20037;-58
2023/05/11 00:31:46;;;;;;;31.20;20.67;;;;;;;11.91;100.00;104232.50;5066526;28;20032;-58
2023/05/11 00:34:13;;;;;;;28.67;20.67;;;;;;;11.92;100.00;103884.13;5070524;28;20063;-58
2023/05/11 00:36:39;;;;;;;29.33;20.52;;;;;;;11.94;100.00;103189.13;5071166;28;20532;-57
2023/05/11 00:39:05;;;;;;;29.77;21.38;;;;;;;11.94;100.00;102839.97;5070102;28;20033;-58
2023/05/11 00:41:30;;;;;;;25.20;19.50;;;;;;;11.93;100.00;103186.59;5070899;28;20032;-58
2023/05/11 00:43:55;;;;;;;25.73;20.38;;;;;;;11.90;100.00;103531.56;5069902;28;20096;-58
2023/05/11 00:46:21;;;;;;;24.77;19.55;;;;;;;11.86;100.00;103874.00;5071179;28;20025;-58
2023/05/11 00:48:46;;;;;;;31.92;18.83;;;;;;;11.86;100.00;103874.00;5070104;28;20565;-58
2023/05/11 00:51:12;;;;;;;30.98;21.67;;;;;;;11.85;100.00;103872.31;5071124;28;20021;-58
2023/05/11 00:53:37;;;;;;;36.30;22.35;;;;;;;11.85;100.00;103174.03;5069463;28;20043;-58
2023/05/11 00:56:03;;;;;;;38.55;21.67;;;;;;;11.85;100.00;102825.75;5056032;28;20509;-59
2023/05/11 00:58:30;;;;;;;38.25;23.65;;;;;;;11.86;100.00;101780.31;5051086;28;20025;-58
2023/05/11 01:00:55;;;;;;;34.90;21.58;;;;;;;11.88;100.00;100736.72;5069058;28;20072;-58
2023/05/11 01:03:20;;;;;;;31.77;23.85;;;;;;;11.90;100.00;99692.50;5071446;28;20078;-58
2023/05/11 01:05:54;;;;;;;30.48;21.88;;;;;;;11.87;100.00;98990.09;5069319;28;20052;-58
2023/05/11 01:08:41;;;;;;;28.67;22.30;;;;;;;11.89;100.00;97947.91;5071189;28;20414;-58
2023/05/11 01:11:32;;;;;;;27.15;20.13;;;;;;;11.89;100.00;97598.44;5069488;28;20048;-58
2023/05/11 01:14:20;;;;;;;32.35;23.10;;;;;;;11.86;100.00;96896.50;5069815;28;20111;-58
2023/05/11 01:16:52;;;;;;;23.98;17.92;;;;;;;11.87;100.00;96898.84;5070886;28;20024;-58
2023/05/11 01:19:45;;;;;;;27.08;18.33;;;;;;;11.85;100.00;96546.38;5069199;28;20040;-58
2023/05/11 01:22:58;;;;;;;25.60;20.65;;;;;;;11.83;100.00;96891.78;5070945;28;20039;-57
2023/05/11 01:25:41;;;;;;;33.58;22.83;;;;;;;11.83;100.00;96543.22;5066348;28;20102;-58
2023/05/11 01:28:24;;;;;;;37.15;25.95;;;;;;;11.83;100.00;95846.22;5071245;28;20056;-57
2023/05/11 01:30:53;;;;;;;28.75;21.85;;;;;;;11.83;100.00;95498.56;5068863;28;20406;-58
2023/05/11 01:33:24;;;;;;;;;;;;;;;11.83;100.00;94800.97;5071430;28;20103;-58
2023/05/11 01:35:55;;;;;;;30.92;23.63;;;;;;;11.83;100.00;94452.59;5068498;28;19919;-57
2023/05/11 01:38:24;;;;;;;32.15;24.35;;;;;;;11.81;100.00;94101.22;5070722;28;20029;-59
2023/05/11 01:40:53;;;;;;;41.00;27.20;;;;;;;11.81;100.00;93753.69;5069239;28;20101;-58
2023/05/11 01:43:22;;;;;;;34.83;22.83;;;;;;;11.82;100.00;93057.94;5069280;28;20502;-59
2023/05/11 01:45:49;;;;;;;;;;;;;;;11.84;100.00;92712.75;5069631;28;20128;-58
2023/05/11 01:48:17;;;;;;;29.15;20.67;;;;;;;11.72;100.00;92000.03;5063083;28;19938;-58
2023/05/11 01:50:43;;;;;;;;;;;;;;;11.83;100.00;92014.91;5067408;28;20045;-57
2023/05/11 01:53:11;;;;;;;28.50;21.88;;;;;;;11.80;100.00;91663.09;5070337;28;19908;-58
2023/05/11 01:55:39;;;;;;;23.67;18.65;;;;;;;11.79;100.00;91661.59;5052880;28;20030;-58
2023/05/11 01:58:07;;;;;;;27.58;20.15;;;;;;;11.81;100.00;90967.69;5030944;28;20021;-57
2023/05/11 02:00:33;;;;;;;36.28;22.75;;;;;;;11.83;100.00;90622.59;5044892;28;20132;-58
2023/05/11 02:03:00;;;;;;;33.00;21.63;;;;;;;11.84;100.00;90276.06;5050640;28;20067;-57
2023/05/11 02:05:27;;;;;;;31.20;24.80;;;;;;;11.85;100.00;89582.31;5048897;28;20041;-58
2023/05/11 02:07:55;;;;;;;32.25;20.58;;;;;;;11.88;100.00;89237.97;5059439;28;20573;-58
2023/05/11 02:10:25;;;;;;;27.60;20.95;;;;;;;11.93;100.00;88548.63;5057893;28;20045;-58
2023/05/11 02:12:52;;;;;;;28.77;20.48;;;;;;;11.91;100.00;88198.63;5050616;28;20025;-58
2023/05/11 02:15:20;;;;;;;29.42;22.00;;;;;;;11.98;100.00;87512.22;5056124;28;20396;-58
2023/05/11 02:17:45;;;;;;;35.43;22.57;;;;;;;11.98;100.00;87512.91;5050001;28;20021;-58
2023/05/11 02:20:12;;;;;;;32.10;20.35;;;;;;;12.02;100.00;87170.72;5062409;28;20123;-58
2023/05/11 02:22:40;;;;;;;31.17;21.20;;;;;;;12.04;100.00;87521.38;5069727;28;20016;-58
2023/05/11 02:25:07;;;;;;;31.25;21.08;;;;;;;12.08;100.00;88569.44;5068905;28;20041;-58
2023/05/11 02:27:34;;;;;;;32.03;23.13;;;;;;;12.05;100.00;89958.66;5069799;28;20605;-57
2023/05/11 02:30:00;;;;;;;34.20;20.80;;;;;;;12.08;100.00;91354.22;5041032;28;20045;-57
2023/05/11 02:32:28;;;;;;;30.67;21.75;;;;;;;12.04;100.00;93439.50;5063568;28;20494;-58
2023/05/11 02:35:00;;;;;;;32.58;22.67;;;;;;;12.02;100.00;95178.72;5068833;28;20071;-58
2023/05/11 02:37:27;;;;;;;34.63;23.52;;;;;;;11.99;100.00;96219.72;5069840;28;20112;-58
2023/05/11 02:40:03;;;;;;;35.95;23.70;;;;;;;11.98;100.00;96915.38;5068581;28;20102;-58
2023/05/11 02:42:37;;;;;;;28.85;20.80;;;;;;;11.91;100.00;96905.13;5070132;28;20029;-57
2023/05/11 02:45:08;;;;;;;41.13;26.92;;;;;;;11.95;100.00;96561.22;5068312;28;20449;-58
2023/05/11 02:47:54;;;;;;;39.03;26.27;;;;;;;11.96;100.00;95517.91;5073499;28;20028;-57
2023/05/11 02:50:23;;;;;;;43.00;28.38;;;;;;;11.97;100.00;94473.31;5052327;28;20055;-58
2023/05/11 02:52:51;;;;;;;44.88;28.83;;;;;;;11.95;100.00;93425.84;5053635;28;20016;-58
2023/05/11 02:55:18;;;;;;;53.97;28.63;;;;;;;11.97;100.00;92732.28;5066259;28;20075;-58
2023/05/11 02:57:44;;;;;;;43.15;26.13;;;;;;;11.98;100.00;92385.53;5073111;28;20090;-58
2023/05/11 03:00:11;;;;;;;56.42;28.10;;;;;;;12.01;100.00;92738.31;5071792;28;20135;-58
2023/05/11 03:02:36;;;;;;;48.53;27.50;;;;;;;12.00;100.00;93781.81;5058750;28;20033;-58
2023/05/11 03:05:03;;;;;;;54.22;29.45;;;;;;;11.99;100.00;94825.59;5064172;28;20041;-58
2023/05/11 03:07:29;;;;;;;46.80;27.73;;;;;;;11.97;100.00;95867.25;5073058;28;20097;-59
2023/05/11 03:09:55;;;;;;;45.15;26.88;;;;;;;11.92;100.00;96208.75;5071789;28;20064;-58
2023/05/11 03:12:20;;;;;;;49.50;27.50;;;;;;;11.93;100.00;95861.00;5073311;28;20059;-58
2023/05/11 03:14:47;;;;;;;49.55;29.05;;;;;;;11.92;100.00;96208.75;5071252;28;20047;-58
2023/05/11 03:17:14;;;;;;;55.58;29.33;;;;;;;11.86;100.00;95851.66;5073111;28;20024;-59
2023/05/11 03:19:41;;;;;;;53.97;29.70;;;;;;;11.85;100.00;95152.44;5071258;28;20044;-58
2023/05/11 03:22:07;;;;;;;48.00;28.75;;;;;;;11.84;100.00;94454.13;5072972;28;20364;-59
2023/05/11 03:24:33;;;;;;;46.67;27.52;;;;;;;11.83;100.00;93408.47;5071727;28;20154;-59
2023/05/11 03:27:00;;;;;;;47.60;28.17;;;;;;;11.81;100.00;92709.00;5073264;28;20078;-59
2023/05/11 03:29:26;;;;;;;53.72;29.90;;;;;;;11.80;100.00;91663.09;5063589;28;20055;-58
2023/05/11 03:31:53;;;;;;;41.85;27.58;;;;;;;11.79;100.00;90616.75;5064525;28;20039;-58
2023/05/11 03:34:19;;;;;;;47.75;27.30;;;;;;;11.75;100.00;89568.53;5057788;28;20041;-58
2023/05/11 03:36:47;;;;;;;42.10;26.17;;;;;;;11.73;100.00;88869.94;5072453;28;20035;-58
2023/05/11 03:39:15;;;;;;;50.80;29.23;;;;;;;11.70;100.00;88170.13;5071211;28;20131;-58
2023/05/11 03:41:41;;;;;;;53.08;27.52;;;;;;;11.69;100.00;87125.63;5072285;28;20028;-58
2023/05/11 03:44:10;;;;;;;45.97;26.98;;;;;;;11.69;100.00;86778.00;5071086;28;20398;-58
2023/05/11 03:46:41;;;;;;;52.65;25.83;;;;;;;11.65;100.00;86424.13;5072809;28;20020;-58
2023/05/11 03:49:07;;;;;;;44.42;27.23;;;;;;;11.64;100.00;86075.91;5064583;28;20036;-58
2023/05/11 03:51:34;;;;;;;43.03;25.38;;;;;;;11.63;100.00;85727.00;5072045;28;20028;-59
2023/05/11 03:53:59;;;;;;;34.83;19.88;;;;;;;11.65;100.00;85034.84;5071309;28;20043;-58
2023/05/11 03:56:25;;;;;;;31.75;19.70;;;;;;;11.63;100.00;85031.41;5072640;28;20020;-59
2023/05/11 03:58:51;;;;;;;36.15;19.67;;;;;;;11.62;100.00;85030.72;5060658;28;20060;-59
2023/05/11 04:01:17;;;;;;;43.22;23.85;;;;;;;11.49;100.00;85707.63;5072062;28;20051;-59
2023/05/11 04:03:50;;;;;;;34.95;21.02;;;;;;;11.52;100.00;85711.78;5070844;28;20103;-58
2023/05/11 04:06:17;;;;;;;44.55;23.02;;;;;;;11.49;100.00;85707.63;5072042;28;20086;-58
2023/05/11 04:08:42;;;;;;;42.78;23.05;;;;;;;11.47;100.00;85357.47;5070256;28;20028;-58
2023/05/11 04:11:08;;;;;;;33.88;20.52;;;;;;;11.48;100.00;84664.19;5060178;28;20136;-59
2023/05/11 04:13:33;;;;;;;40.28;20.98;;;;;;;11.53;100.00;83976.38;5050839;28;20025;-58
2023/05/11 04:15:58;;;;;;;37.95;20.33;;;;;;;11.49;100.00;83624.41;5069318;28;20040;-58
2023/05/11 04:18:24;;;;;;;35.22;19.67;;;;;;;11.45;100.00;83271.84;5071470;28;20024;-58
2023/05/11 04:20:49;;;;;;;33.38;20.95;;;;;;;11.42;100.00;83268.47;5068373;28;20051;-58
2023/05/11 04:23:15;;;;;;;40.10;20.10;;;;;;;11.40;100.00;82918.66;5051908;28;20025;-58
2023/05/11 04:25:40;;;;;;;45.80;22.52;;;;;;;11.41;100.00;82225.13;5050309;28;20373;-57
2023/05/11 04:28:05;;;;;;;45.38;21.40;;;;;;;11.41;100.00;81531.72;5051797;28;20037;-59
2023/05/11 04:30:31;;;;;;;28.40;18.48;;;;;;;11.42;100.00;80492.16;5065876;28;20048;-58
2023/05/11 04:32:56;;;;;;;35.65;18.50;;;;;;;11.43;100.00;80146.53;5071271;28;20435;-57
2023/05/11 04:35:22;;;;;;;28.00;18.67;;;;;;;11.48;100.00;79111.09;5068330;28;20036;-58
2023/05/11 04:37:47;;;;;;;26.55;16.27;;;;;;;11.38;100.00;78752.84;5071065;28;20383;-58
2023/05/11 04:40:13;;;;;;;21.48;14.90;;;;;;;11.40;100.00;78408.66;5068724;28;20094;-57
2023/05/11 04:42:38;;;;;;;23.52;14.43;;;;;;;11.40;100.00;78061.94;5071509;28;20645;-57
2023/05/11 04:45:04;;;;;;;25.27;13.68;;;;;;;11.40;100.00;77715.25;5070132;28;20044;-58
2023/05/11 04:47:29;;;;;;;24.60;15.23;;;;;;;11.38;100.00;77712.75;5071560;28;20033;-58
2023/05/11 04:49:55;;;;;;;18.38;14.27;;;;;;;11.38;100.00;77365.50;5069894;28;20040;-57
2023/05/11 04:52:20;;;;;;;19.65;13.27;;;;;;;11.41;100.00;77023.22;5071376;28;20499;-58
2023/05/11 04:54:45;;;;;;;17.50;12.23;;;;;;;11.41;100.00;76676.00;5068962;28;20110;-57
2023/05/11 04:57:11;;;;;;;18.70;11.02;;;;;;;11.41;100.00;76330.06;5060357;28;20021;-57
2023/05/11 04:59:36;;;;;;;20.25;12.68;;;;;;;11.43;100.00;75985.34;5056461;28;20041;-57
2023/05/11 05:02:01;;;;;;;15.95;11.45;;;;;;;11.51;100.00;75301.41;5060033;28;20588;-57
2023/05/11 05:04:27;;;;;;;17.92;12.27;;;;;;;11.51;100.00;75302.00;5056283;28;20438;-57
2023/05/11 05:06:53;;;;;;;19.23;12.80;;;;;;;11.58;100.00;74616.81;5057873;28;20028;-57
2023/05/11 05:09:19;;;;;;;17.10;12.25;;;;;;;11.63;100.00;74276.31;5057252;28;20086;-57
2023/05/11 05:11:44;;;;;;;17.35;12.30;;;;;;;11.70;100.00;73591.66;5060004;28;20047;-57
2023/05/11 05:14:09;;;;;;;17.77;13.20;;;;;;;11.78;100.00;72906.94;5057926;28;20443;-57
2023/05/11 05:16:35;;;;;;;16.52;11.68;;;;;;;11.84;100.00;72221.03;5059137;28;20033;-58
2023/05/11 05:19:00;;;;;;;17.10;12.30;;;;;;;11.91;100.00;71189.84;5056943;28;20044;-57
2023/05/11 05:21:25;;;;;;;17.55;13.35;;;;;;;12.00;100.00;70160.97;5060266;28;20017;-57
2023/05/11 05:23:51;;;;;;;19.50;13.13;;;;;;;12.09;100.00;69130.94;5052872;28;20098;-58
2023/05/11 05:26:16;;;;;;;20.05;12.55;;;;;;;12.16;100.00;68099.81;5059902;28;20029;-57
2023/05/11 05:28:41;;;;;;;15.90;12.00;;;;;;;12.27;100.00;67072.97;5053990;28;20056;-57
2023/05/11 05:31:07;;;;;;;15.30;12.10;;;;;;;12.27;100.00;66726.75;5054029;28;20479;-57
2023/05/11 05:33:32;;;;;;;10.43;8.15;;;;;;;12.33;100.00;66386.94;5049522;28;20028;-57
2023/05/11 05:35:57;;;;;;;11.68;8.57;;;;;;;12.27;100.00;66726.75;5050448;28;20029;-57
2023/05/11 05:38:23;;;;;;;7.18;6.40;;;;;;;12.30;100.00;67768.72;5050859;28;20562;-57
2023/05/11 05:40:48;;;;;;;6.35;5.38;;;;;;;12.28;100.00;69498.38;5048127;28;20105;-57
2023/05/11 05:43:13;;;;;;;7.45;5.28;;;;;;;12.24;100.00;72612.91;5050326;28;20486;-58
2023/05/11 05:45:39;;;;;;;7.13;6.00;;;;;;;12.16;100.00;76418.47;5049118;28;20600;-57
2023/05/11 05:48:05;;;;;;;7.50;6.80;;;;;;;12.03;100.00;83694.63;5049729;28;20047;-58
2023/05/11 05:50:31;;;;;;;10.77;8.02;;;;;;;12.13;100.00;90316.97;5048748;28;20109;-57
2023/05/11 05:52:57;;;;;;;12.05;9.30;;;;;;;12.17;100.00;95549.69;5050931;28;20028;-57
2023/05/11 05:55:22;;;;;;;10.48;8.75;;;;;;;12.20;100.00;99391.31;5048939;28;20040;-58
2023/05/11 05:57:48;;;;;;;10.02;7.57;;;;;;;12.17;100.00;104274.06;5050505;28;20344;-57
2023/05/11 06:00:14;;;;;;;8.55;6.97;;;;;;;12.17;100.00;111267.72;5049117;28;20061;-57
2023/05/11 06:02:40;;;;;;;10.50;8.60;;;;;;;12.21;100.00;118281.09;5050460;28;20028;-58
2023/05/11 06:05:06;;;;;;;9.60;8.60;;;;;;;12.38;100.00;120769.63;5048874;28;20045;-57
2023/05/11 06:07:32;;;;;;;10.73;8.80;;;;;;;12.43;100.00;122532.59;5050314;28;20032;-57
2023/05/11 06:09:57;;;;;;;11.13;8.60;;;;;;;12.54;100.00;122905.81;5049337;28;20059;-57
2023/05/11 06:12:23;;;;;;;8.93;8.02;;;;;;;12.65;100.00;124333.13;5049789;28;20468;-57
2023/05/11 06:14:48;;;;;;;11.40;8.25;;;;;;;12.82;100.00;128233.63;5048411;28;20037;-57
2023/05/11 06:17:13;;;;;;;9.73;8.20;;;;;;;13.07;100.00;130044.09;5068028;28;20086;-58
2023/05/11 06:19:39;;;;;;;8.27;7.47;;;;;;;13.16;100.00;137464.94;5068515;28;20040;-57
2023/05/11 06:22:05;;;;;;;9.50;6.35;;;;;;;13.15;100.00;155847.69;5073755;28;20078;-57
2023/05/11 06:24:30;;;;;;;6.80;5.22;;;;;;;13.02;100.00;163969.00;5072498;28;20380;-57
2023/05/11 06:26:56;;;;;;;4.57;4.18;;;;;;;13.01;100.00;163967.63;5073727;28;20017;-57
2023/05/11 06:29:21;;;;;;;3.17;2.88;;;;;;;12.89;100.00;163935.19;5073089;28;20496;-57
2023/05/11 06:31:51;;;;;;;4.65;3.35;;;;;;;13.01;100.00;163966.28;5073737;28;20033;-58
2023/05/11 06:34:18;;;;;;;3.78;3.45;;;;;;;13.14;100.00;164001.41;5072550;28;20090;-57
2023/05/11 06:36:43;;;;;;;3.72;3.42;;;;;;;13.27;100.00;164035.22;5072336;28;20479;-58
2023/05/11 06:39:08;;;;;;;3.08;2.78;;;;;;;13.38;100.00;164062.25;5072496;28;20036;-57
2023/05/11 06:41:34;;;;;;;1.70;1.60;;;;;;;13.39;100.00;164065.00;5073659;28;20035;-57
2023/05/11 06:43:59;;;;;;;2.25;2.08;;;;;;;13.58;100.00;164116.41;5072309;28;20556;-57
2023/05/11 06:46:25;;;;;;;2.03;1.60;;;;;;;13.64;100.00;164132.63;5073498;28;20020;-57
2023/05/11 06:48:50;;;;;;;4.80;2.47;;;;;;;13.57;100.00;164113.72;5072106;28;20387;-57
2023/05/11 06:51:15;;;;;;;2.00;1.80;;;;;;;13.31;100.00;164046.03;5073690;28;20029;-57
2023/05/11 06:53:41;;;;;;;4.50;2.88;;;;;;;13.15;100.00;164004.13;5072108;28;20086;-57
2023/05/11 06:56:07;;;;;;;3.30;3.00;;;;;;;13.00;100.00;163964.91;5073527;28;20027;-58
2023/05/11 06:58:32;;;;;;;4.30;3.17;;;;;;;12.81;100.00;163914.88;5073406;28;20493;-57
2023/05/11 07:00:58;;;;;;;2.72;2.53;;;;;;;12.78;100.00;163905.44;5071898;28;20060;-57
2023/05/11 07:03:23;;;;;;;3.20;2.95;;;;;;;12.80;100.00;163910.84;5073049;28;20040;-57
2023/05/11 07:05:48;;;;;;;4.82;2.72;;;;;;;12.86;100.00;163927.06;5072179;28;20045;-57
2023/05/11 07:08:14;;;;;;;3.88;3.28;;;;;;;12.98;100.00;163958.16;5073783;28;20020;-57
2023/05/11 07:10:40;;;;;;;2.75;2.55;;;;;;;13.07;100.00;163981.16;5071434;28;20406;-57
2023/05/11 07:13:05;;;;;;;3.17;2.80;;;;;;;13.14;100.00;164000.09;5073886;28;20027;-57
2023/05/11 07:15:31;;;;;;;3.15;2.78;;;;;;;13.16;100.00;164005.47;5071655;28;20395;-57
2023/05/11 07:17:56;;;;;;;3.55;3.25;;;;;;;13.26;100.00;164032.53;5073143;28;20509;-57
2023/05/11 07:20:22;;;;;;;3.92;3.53;;;;;;;13.37;100.00;164060.91;5071681;28;20036;-57
2023/05/11 07:22:47;;;;;;;3.13;2.88;;;;;;;13.29;100.00;164040.59;5073289;28;20024;-57
2023/05/11 07:25:12;;;;;;;4.15;2.65;;;;;;;13.26;100.00;164032.53;5071622;28;20060;-57
2023/05/11 07:27:38;;;;;;;4.10;3.53;;;;;;;13.36;100.00;164056.88;5073034;28;20471;-57
2023/05/11 07:30:03;;;;;;;5.80;3.53;;;;;;;13.41;100.00;164070.44;5071713;28;20548;-57
2023/05/11 07:32:29;;;;;;;3.72;3.45;;;;;;;13.54;100.00;164105.56;5072364;28;20835;-57
2023/05/11 07:34:54;;;;;;;3.50;2.35;;;;;;;13.60;100.00;164121.78;5071654;28;20071;-57
2023/05/11 07:37:20;;;;;;;2.30;2.10;;;;;;;13.63;100.00;164128.53;5072986;28;20037;-57
2023/05/11 07:39:45;;;;;;;2.92;2.72;;;;;;;13.76;100.00;164162.38;5071097;28;20090;-57
2023/05/11 07:42:11;;;;;;;4.22;2.80;;;;;;;13.89;100.00;164197.53;5073021;28;20043;-56
2023/05/11 07:44:36;;;;;;;3.25;2.55;;;;;;;14.00;100.00;164224.59;5054223;28;20045;-57
2023/05/11 07:47:02;;;;;;;2.00;1.90;;;;;;;14.06;100.00;164240.81;5052390;28;20029;-57
2023/05/11 07:49:27;;;;;;;4.68;2.25;;;;;;;14.31;100.00;164305.75;5051237;28;20503;-57
2023/05/11 07:51:53;;;;;;;2.20;2.00;;;;;;;14.32;100.00;164308.47;5052920;28;20025;-57
2023/05/11 07:54:18;;;;;;;2.85;2.65;;;;;;;14.43;100.00;164339.59;5051408;28;20617;-57
2023/05/11 07:56:44;;;;;;;2.58;2.38;;;;;;;14.72;100.00;164414.03;5052218;28;20032;-57
2023/05/11 07:59:09;;;;;;;3.22;2.45;;;;;;;14.79;100.00;164431.66;5050975;28;20450;-57
2023/05/11 08:01:34;;;;;;;2.05;1.83;;;;;;;14.88;100.00;164457.34;5052259;28;20052;-57
2023/05/11 08:04:00;;;;;;;3.40;1.75;;;;;;;15.21;100.00;164542.59;5050774;28;20086;-57
2023/05/11 08:06:25;;;;;;;2.97;1.92;;;;;;;15.50;100.00;164619.78;5051988;28;20029;-57
2023/05/11 08:08:50;;;;;;;1.98;1.88;;;;;;;-146.58;100.00;69501.63;5050880;28;20028;-57
2023/05/11 08:11:16;;;;;;;2.47;2.28;;;;;;;16.00;100.00;164749.81;5051771;28;20434;-57
2023/05/11 08:13:41;;;;;;;3.28;3.00;;;;;;;-146.58;100.00;69501.63;5050815;28;20162;-57
2023/05/11 08:16:07;;;;;;;2.65;2.45;;;;;;;-146.58;100.00;69501.63;5052375;28;20032;-56
2023/05/11 08:18:32;;;;;;;1.90;1.80;;;;;;;-146.58;100.00;69501.63;5051484;28;20024;-58
2023/05/11 08:20:57;;;;;;;3.83;3.53;;;;;;;-146.58;100.00;69501.63;5050767;28;20152;-57
2023/05/11 08:23:23;;;;;;;2.40;2.22;;;;;;;-146.58;100.00;69501.63;5052189;28;20028;-57
2023/05/11 08:25:53;;;;;;;2.22;2.03;;;;;;;16.00;100.00;164749.81;5050295;28;20037;-57
2023/05/11 08:28:19;;;;;;;2.28;2.08;;;;;;;16.50;100.00;164881.19;5051984;28;20412;-58
2023/05/11 08:30:44;;;;;;;2.95;2.67;;;;;;;16.33;100.00;164837.84;5050209;28;20041;-57
2023/05/11 08:33:10;;;;;;;2.00;1.90;;;;;;;16.35;100.00;164841.88;5051793;28;20055;-58
2023/05/11 08:35:37;;;;;;;3.20;2.40;;;;;;;16.34;100.00;164839.22;5050200;28;20029;-58
2023/05/11 08:38:03;;;;;;;2.50;2.30;;;;;;;16.32;100.00;164835.13;5051925;28;20495;-57
2023/05/11 08:40:29;;;;;;;4.13;1.67;;;;;;;16.20;100.00;164802.63;5049742;28;20045;-57
2023/05/11 08:42:56;;;;;;;3.75;2.70;;;;;;;16.32;100.00;164833.78;5051434;28;20483;-56
2023/05/11 08:45:21;;;;;;;2.03;1.88;;;;;;;16.30;100.00;164828.34;5050077;28;20585;-57
2023/05/11 08:47:48;;;;;;;2.25;1.98;;;;;;;16.24;100.00;164813.44;5051287;28;20168;-57
2023/05/11 08:50:13;;;;;;;2.13;2.00;;;;;;;16.35;100.00;164841.88;5050169;28;20033;-57
2023/05/11 08:52:39;;;;;;;1.73;1.63;;;;;;;16.42;100.00;164860.84;5051236;28;20024;-57
2023/05/11 08:55:06;;;;;;;1.35;1.25;;;;;;;16.57;100.00;164898.81;5049875;28;20045;-57
2023/05/11 08:57:33;;;;;;;1.55;1.45;;;;;;;16.65;100.00;164920.44;5051254;28;20029;-57
2023/05/11 09:00:01;;;;;;;1.98;1.85;;;;;;;16.59;100.00;164904.19;5049798;28;20037;-57
2023/05/11 09:02:27;;;;;;;2.53;2.33;;;;;;;16.74;100.00;164944.84;5050826;28;20021;-57
2023/05/11 09:04:54;;;;;;;4.28;1.92;;;;;;;16.85;100.00;164971.97;5050133;28;20041;-57
2023/05/11 09:07:20;;;;;;;2.22;2.03;;;;;;;16.95;100.00;164999.06;5051437;28;20032;-57
2023/05/11 09:09:46;;;;;;;1.80;1.70;;;;;;;16.96;100.00;165001.78;5049076;28;20041;-57
2023/05/11 09:12:12;;;;;;;1.92;1.77;;;;;;;17.05;100.00;165024.88;5051402;28;20024;-57
2023/05/11 09:14:38;;;;;;;1.67;1.48;;;;;;;16.84;100.00;164969.25;5049842;28;20388;-57
2023/05/11 09:17:04;;;;;;;2.95;2.05;;;;;;;16.93;100.00;164993.69;5050877;28;20148;-57
2023/05/11 09:19:30;;;;;;;1.70;1.60;;;;;;;17.16;100.00;165053.31;5049404;28;20487;-56
2023/05/11 09:21:55;;;;;;;5.43;3.13;;;;;;;17.29;100.00;165088.53;5051298;28;20021;-57
2023/05/11 09:24:21;;;;;;;4.30;1.98;;;;;;;17.37;100.00;165110.22;5049347;28;20510;-57
2023/05/11 09:26:47;;;;;;;2.67;2.20;;;;;;;17.62;100.00;165173.91;5051106;28;20025;-57
2023/05/11 09:29:12;;;;;;;2.53;2.33;;;;;;;17.70;100.00;165196.94;5049733;28;20040;-57
2023/05/11 09:31:41;;;;;;;5.40;2.30;;;;;;;17.53;100.00;165150.88;5050495;28;20481;-57
2023/05/11 09:34:16;;;;;;;5.15;2.55;;;;;;;17.67;100.00;165187.44;5049461;28;20091;-58
2023/05/11 09:36:52;;;;;;;2.47;2.28;;;;;;;17.92;100.00;165253.88;5050805;28;20056;-57
2023/05/11 09:39:30;;;;;;;6.78;2.15;;;;;;;18.35;100.00;165367.84;5049229;28;20041;-57
2023/05/11 09:42:19;;;;;;;2.13;1.88;;;;;;;18.22;100.00;165333.94;5051232;28;20025;-57
2023/05/11 09:44:45;;;;;;;2.55;2.00;;;;;;;18.41;100.00;165381.38;5040812;28;20141;-58
2023/05/11 09:47:12;;;;;;;7.90;2.75;;;;;;;18.71;100.00;165462.75;5050217;28;20041;-58
2023/05/11 09:49:42;;;;;;;3.42;3.22;;;;;;;18.98;100.00;165532.00;5049353;28;20123;-58
2023/05/11 09:52:08;;;;;;;2.60;2.10;;;;;;;19.07;100.00;165555.03;5050789;28;20025;-58
2023/05/11 09:54:45;;;;;;;2.03;1.92;;;;;;;18.85;100.00;165498.00;5048524;28;20496;-58
2023/05/11 09:57:37;;;;;;;3.47;2.08;;;;;;;19.02;100.00;165542.81;5054614;28;20017;-58
2023/05/11 10:00:04;;;;;;;2.72;2.53;;;;;;;18.62;100.00;165438.34;5051110;28;20064;-58
2023/05/11 10:02:30;;;;;;;2.65;2.45;;;;;;;18.71;100.00;165462.75;5054171;28;20055;-58
2023/05/11 10:04:57;;;;;;;3.42;2.70;;;;;;;18.48;100.00;165400.38;5053377;28;20395;-58
2023/05/11 10:07:34;;;;;;;2.33;2.22;;;;;;;18.46;100.00;165394.94;5054256;28;20036;-58
2023/05/11 10:10:05;;;;;;;3.35;3.05;;;;;;;18.10;100.00;165300.03;5053075;28;20120;-58
2023/05/11 10:12:32;;;;;;;3.05;2.47;;;;;;;17.87;100.00;165241.66;5054157;28;20024;-58
2023/05/11 10:15:01;;;;;;;2.80;2.60;;;;;;;17.38;100.00;165111.56;5052989;28;20445;-59
2023/05/11 10:17:27;;;;;;;3.67;3.38;;;;;;;17.04;100.00;165023.47;5056168;28;20051;-58
2023/05/11 10:19:54;;;;;;;3.85;3.22;;;;;;;17.13;100.00;165047.88;5073115;28;20048;-58
2023/05/11 10:22:20;;;;;;;3.17;2.88;;;;;;;17.28;100.00;165085.81;5074635;28;20104;-58
2023/05/11 10:24:46;;;;;;;3.28;2.75;;;;;;;17.51;100.00;165145.44;5071531;28;20526;-58
2023/05/11 10:27:12;;;;;;;7.15;2.63;;;;;;;17.70;100.00;165196.94;5074331;28;20028;-58
2023/05/11 10:29:38;;;;;;;2.58;2.00;;;;;;;17.66;100.00;165184.72;5072869;28;20457;-58
2023/05/11 10:32:06;;;;;;;3.55;2.78;;;;;;;17.77;100.00;165214.56;5073388;28;20479;-58
2023/05/11 10:34:32;;;;;;;15.95;4.72;;;;;;;17.79;100.00;165220.00;5072106;28;20048;-57
2023/05/11 10:37:01;;;;;;;5.20;2.58;;;;;;;17.71;100.00;165199.66;5073333;28;20475;-57
2023/05/11 10:39:28;;;;;;;3.42;2.42;;;;;;;17.67;100.00;165188.84;5071134;28;20090;-57
2023/05/11 10:42:11;;;;;;;3.78;3.35;;;;;;;17.74;100.00;165207.81;5073670;28;20475;-58
2023/05/11 10:44:55;;;;;;;4.20;2.10;;;;;;;17.74;100.00;165206.44;5072124;28;20040;-58
2023/05/11 10:47:44;;;;;;;3.10;2.38;;;;;;;17.66;100.00;165184.72;5073557;28;20104;-57
2023/05/11 10:50:12;;;;;;;;;;;;;;;17.88;100.00;165243.03;5072473;28;20051;-57
2023/05/11 10:52:52;;;;;;;3.47;3.17;;;;;;;18.13;100.00;165308.19;5073088;28;20397;-57
2023/05/11 10:55:26;;;;;;;5.63;2.78;;;;;;;18.07;100.00;165293.25;5072183;28;20387;-57
2023/05/11 10:58:08;;;;;;;4.30;2.42;;;;;;;18.19;100.00;165324.44;5074141;28;20032;-57
2023/05/11 11:00:50;;;;;;;3.60;3.13;;;;;;;18.13;100.00;165308.19;5071479;28;20083;-57
2023/05/11 11:03:16;;;;;;;4.15;3.75;;;;;;;18.15;100.00;165313.56;5073815;28;20035;-58
2023/05/11 11:05:43;;;;;;;3.00;2.47;;;;;;;17.96;100.00;165263.41;5071873;28;20036;-57
2023/05/11 11:08:09;;;;;;;3.47;2.95;;;;;;;18.04;100.00;165286.50;5072995;28;20032;-58
2023/05/11 11:10:42;;;;;;;3.05;2.75;;;;;;;18.11;100.00;165302.75;5071694;28;20063;-57
2023/05/11 11:13:10;;;;;;;3.03;2.65;;;;;;;18.17;100.00;165319.00;5073398;28;20548;-57
2023/05/11 11:16:07;;;;;;;4.32;2.53;;;;;;;18.21;100.00;165329.84;5071427;28;20033;-57